.
WxDataArchive / Data Records for 2006-05-18
2006-05-17 May 2006 2006-05-19

Data Records for Thursday, 18 May 2006

Time	Temp	Chill	HIndex	Humid	Dewpt	 Wind 	HiWind	WindDir	Rain 	Barom 
-----	----	-----	------	-----	-----	------	------	-------	-----	----- 
00:00	54.4	54.4	54.4	94	52.7	0	1	248	0.00	29.475 
00:05	54.4	54.4	54.4	94	52.7	1	3	248	0.00	29.475 
00:10	54.4	54.4	54.4	94	52.7	1	3	248	0.00	29.475 
00:15	54.1	54.1	54.1	93	52.1	1	3	338	0.00	29.474 
00:20	53.6	53.6	53.6	92	51.3	2	5	315	0.00	29.474 
00:25	53.3	53.3	53.3	91	50.7	2	3	292	0.00	29.474 
00:30	52.9	52.9	52.9	89	49.7	1	5	292	0.00	29.481 
00:35	52.6	52.6	52.6	88	49.1	1	4	315	0.00	29.481 
00:40	52.3	52.3	52.3	89	49.2	2	4	292	0.00	29.481 
00:45	52.0	52.0	52.0	88	48.6	1	4	292	0.00	29.487 
00:50	51.9	51.9	51.9	88	48.5	1	4	315	0.00	29.487 
00:55	51.7	51.7	51.7	87	48.0	1	5	292	0.00	29.487 
01:00	51.6	51.6	51.6	86	47.5	1	5	270	0.00	29.480 
01:05	51.4	51.4	51.4	85	47.0	1	9	292	0.00	29.480 
01:10	51.3	51.3	51.3	85	46.9	1	3	315	0.00	29.480 
01:15	51.1	51.1	51.1	85	46.7	0	2	225	0.00	29.476 
01:20	51.0	51.0	51.0	85	46.7	1	3	270	0.00	29.476 
01:25	51.0	51.0	51.0	85	46.7	1	3	292	0.00	29.476 
01:30	51.0	51.0	51.0	85	46.7	1	2	315	0.00	29.475 
01:35	50.8	50.8	50.8	86	46.8	0	2	338	0.00	29.475 
01:40	50.8	50.8	50.8	86	46.8	0	2	292	0.00	29.475 
01:45	50.7	50.7	50.7	86	46.7	1	3	292	0.00	29.477 
01:50	50.7	50.7	50.7	86	46.7	1	5	248	0.00	29.477 
01:55	50.5	50.5	50.5	86	46.5	1	4	270	0.00	29.477 
02:00	50.5	50.5	50.5	86	46.5	2	5	270	0.00	29.477 
02:05	50.4	50.4	50.4	87	46.7	1	3	270	0.00	29.477 
02:10	50.4	50.4	50.4	87	46.7	2	4	270	0.00	29.477 
02:15	50.2	50.2	50.2	87	46.5	2	4	248	0.00	29.473 
02:20	50.1	50.1	50.1	88	46.7	1	4	248	0.00	29.473 
02:25	49.9	49.9	49.9	88	46.5	1	4	248	0.00	29.473 
02:30	49.8	49.8	49.8	88	46.4	1	3	315	0.00	29.470 
02:35	49.6	49.6	49.6	88	46.2	2	3	270	0.00	29.470 
02:40	49.5	49.5	49.5	88	46.1	1	4	270	0.00	29.470 
02:45	49.4	49.4	49.4	88	46.0	1	4	248	0.00	29.463 
02:50	49.2	49.2	49.2	88	45.8	2	4	315	0.00	29.463 
02:55	49.1	49.1	49.1	88	45.7	2	6	248	0.00	29.463 
03:00	48.9	48.9	48.9	89	45.8	1	4	0	0.00	29.464 
03:05	48.8	48.8	48.8	89	45.7	1	3	292	0.00	29.464 
03:10	48.6	48.6	48.6	89	45.5	1	3	270	0.00	29.464 
03:15	48.5	48.5	48.5	89	45.4	2	4	248	0.00	29.471 
03:20	48.5	48.5	48.5	89	45.4	1	4	270	0.00	29.471 
03:25	48.3	48.3	48.3	88	44.9	1	5	292	0.00	29.471 
03:30	48.2	48.2	48.2	88	44.8	1	3	315	0.00	29.475 
03:35	48.2	48.2	48.2	88	44.8	1	3	315	0.00	29.475 
03:40	48.0	48.0	48.0	88	44.6	1	3	315	0.00	29.475 
03:45	48.0	48.0	48.0	88	44.6	1	3	292	0.00	29.476 
03:50	47.7	47.7	47.7	88	44.3	1	3	292	0.00	29.476 
03:55	47.7	47.7	47.7	88	44.3	1	4	292	0.00	29.476 
04:00	47.7	47.7	47.7	88	44.3	1	3	248	0.00	29.479 
04:05	47.6	47.6	47.6	88	44.2	1	2	315	0.00	29.479 
04:10	47.6	47.6	47.6	88	44.2	1	4	292	0.00	29.479 
04:15	47.4	47.4	47.4	87	43.7	1	3	248	0.00	29.485 
04:20	47.4	47.4	47.4	87	43.7	1	4	292	0.00	29.485 
04:25	47.3	47.3	47.3	87	43.6	1	3	270	0.00	29.485 
04:30	47.3	47.3	47.3	87	43.6	1	4	315	0.00	29.488 
04:35	47.1	47.1	47.1	87	43.4	1	3	270	0.00	29.488 
04:40	47.1	47.1	47.1	87	43.4	1	2	315	0.00	29.488 
04:45	47.0	47.0	47.0	87	43.3	0	2	315	0.00	29.484 
04:50	47.0	47.0	47.0	87	43.3	1	2	315	0.00	29.484 
04:55	46.8	46.8	46.8	87	43.1	0	2	315	0.00	29.484 
05:00	46.7	46.7	46.7	87	43.0	1	3	315	0.00	29.492 
05:05	46.7	46.7	46.7	87	43.0	1	4	292	0.00	29.492 
05:10	46.7	46.7	46.7	87	43.0	1	5	270	0.00	29.492 
05:15	46.5	46.5	46.5	87	42.8	0	2	292	0.00	29.499 
05:20	46.4	46.4	46.4	87	42.7	0	2	270	0.00	29.499 
05:25	46.4	46.4	46.4	87	42.7	1	3	315	0.00	29.499 
05:30	46.2	46.2	46.2	87	42.5	1	4	270	0.00	29.503 
05:35	46.2	46.2	46.2	87	42.5	1	3	270	0.00	29.503 
05:40	46.2	46.2	46.2	87	42.5	1	3	248	0.00	29.503 
05:45	46.1	46.1	46.1	88	42.7	1	3	315	0.00	29.506 
05:50	46.1	46.1	46.1	88	42.7	0	1	270	0.00	29.506 
05:55	46.1	46.1	46.1	88	42.7	1	2	292	0.00	29.506 
06:00	46.1	46.1	46.1	88	42.7	1	3	292	0.00	29.506 
06:05	46.1	46.1	46.1	88	42.7	1	2	292	0.00	29.506 
06:10	46.1	46.1	46.1	88	42.7	1	2	292	0.00	29.506 
06:15	46.0	46.0	46.0	88	42.6	1	2	292	0.00	29.506 
06:20	46.0	46.0	46.0	88	42.6	0	2	292	0.00	29.506 
06:25	45.8	45.8	45.8	88	42.5	0	1	292	0.00	29.506 
06:30	45.7	45.7	45.7	89	42.6	0	2	270	0.00	29.509 
06:35	45.7	45.7	45.7	89	42.6	1	3	270	0.00	29.509 
06:40	45.7	45.7	45.7	89	42.6	0	2	248	0.00	29.509 
06:45	45.7	45.7	45.7	89	42.6	0	2	248	0.00	29.512 
06:50	45.8	45.8	45.8	90	43.0	0	2	248	0.00	29.512 
06:55	46.0	46.0	46.0	90	43.2	1	2	248	0.00	29.512 
07:00	46.1	46.1	46.1	90	43.3	1	3	248	0.00	29.515 
07:05	46.1	46.1	46.1	90	43.3	1	2	248	0.00	29.515 
07:10	46.2	46.2	46.2	90	43.4	1	2	248	0.00	29.515 
07:15	46.5	46.5	46.5	89	43.4	1	3	225	0.00	29.518 
07:20	46.8	46.8	46.8	89	43.7	1	3	248	0.00	29.518 
07:25	47.3	47.3	47.3	88	43.9	1	3	225	0.00	29.518 
07:30	47.6	47.6	47.6	87	43.9	1	3	225	0.00	29.517 
07:35	47.9	47.9	47.9	87	44.2	2	4	248	0.00	29.517 
07:40	48.2	48.2	48.2	86	44.2	1	3	270	0.00	29.517 
07:45	48.5	48.5	48.5	85	44.2	2	4	270	0.00	29.521 
07:50	48.6	48.6	48.6	85	44.3	2	4	248	0.00	29.521 
07:55	48.6	48.6	48.6	85	44.3	1	4	248	0.00	29.521 
08:00	48.6	48.6	48.6	85	44.3	2	6	270	0.00	29.534 
08:05	48.9	48.9	48.9	84	44.3	2	4	270	0.00	29.534 
08:10	49.5	49.5	49.5	84	44.9	2	4	315	0.00	29.534 
08:15	49.4	49.4	49.4	82	44.1	2	3	315	0.00	29.537 
08:20	49.1	49.1	49.1	85	44.8	2	4	315	0.03	29.537 
08:25	48.0	48.0	48.0	86	44.0	2	3	248	0.00	29.537 
08:30	47.7	47.7	47.7	88	44.3	2	5	248	0.00	29.532 
08:35	47.6	47.6	47.6	88	44.2	1	3	248	0.00	29.532 
08:40	47.6	47.6	47.6	89	44.5	0	1	248	0.00	29.532 
08:45	47.7	47.7	47.7	89	44.6	0	2	248	0.00	29.529 
08:50	47.9	47.9	47.9	89	44.8	1	2	248	0.00	29.529 
08:55	48.0	48.0	48.0	87	44.3	2	5	248	0.00	29.529 
09:00	48.2	48.2	48.2	87	44.5	1	4	248	0.00	29.532 
09:05	48.3	48.3	48.3	87	44.6	1	4	248	0.00	29.532 
09:10	49.2	49.2	49.2	87	45.5	1	3	270	0.00	29.532 
09:15	50.1	50.1	50.1	84	45.5	2	6	248	0.00	29.523 
09:20	51.1	51.1	51.1	84	46.4	2	5	248	0.00	29.523 
09:25	51.9	51.9	51.9	81	46.3	2	4	248	0.00	29.523 
09:30	52.3	52.3	52.3	81	46.6	2	5	248	0.00	29.521 
09:35	52.6	52.6	52.6	80	46.6	3	5	248	0.00	29.521 
09:40	52.9	52.9	52.9	79	46.6	3	5	270	0.00	29.521 
09:45	53.2	53.2	53.2	79	46.9	3	10	270	0.00	29.520 
09:50	53.5	53.5	53.5	77	46.5	4	10	270	0.00	29.520 
09:55	53.8	53.8	53.8	78	47.1	3	5	270	0.00	29.520 
10:00	54.4	54.4	54.4	78	47.7	2	4	270	0.00	29.517 
10:05	54.7	54.7	54.7	77	47.6	3	7	248	0.00	29.517 
10:10	54.8	54.8	54.8	75	47.0	3	7	270	0.00	29.517 
10:15	55.3	55.3	55.3	76	47.9	3	5	248	0.00	29.514 
10:20	55.7	55.7	55.7	73	47.2	3	5	270	0.00	29.514 
10:25	55.7	55.7	55.7	73	47.2	3	6	248	0.00	29.514 
10:30	56.3	56.3	56.3	73	47.8	3	5	270	0.00	29.511 
10:35	56.9	56.9	56.9	70	47.2	3	4	270	0.00	29.511 
10:40	57.2	57.2	57.2	67	46.3	3	5	270	0.00	29.511 
10:45	57.6	57.6	57.6	70	47.9	3	7	270	0.00	29.511 
10:50	57.8	57.8	57.8	66	46.5	3	8	270	0.00	29.511 
10:55	57.2	57.2	57.2	67	46.3	3	6	270	0.00	29.511 
11:00	57.5	57.5	57.5	67	46.6	2	5	270	0.00	29.509 
11:05	57.6	57.6	57.6	65	45.9	2	5	270	0.00	29.509 
11:10	57.2	57.2	57.2	62	44.3	3	7	270	0.00	29.509 
11:15	58.1	58.1	58.1	64	46.0	3	6	270	0.00	29.503 
11:20	58.1	58.1	58.1	64	46.0	2	4	292	0.00	29.503 
11:25	57.8	57.8	57.8	60	44.0	2	5	270	0.00	29.503 
11:30	57.0	57.0	57.0	59	42.8	3	6	270	0.00	29.499 
11:35	58.3	58.3	58.3	59	44.0	3	10	270	0.00	29.499 
11:40	58.6	58.6	58.6	56	43.0	3	7	270	0.00	29.499 
11:45	57.8	57.8	57.8	55	41.7	3	13	315	0.00	29.493 
11:50	56.5	56.5	56.5	59	42.3	4	10	270	0.00	29.493 
11:55	54.1	54.1	54.1	64	42.2	3	8	315	0.01	29.493 
12:00	53.5	53.5	53.5	69	43.6	3	7	315	0.00	29.505 
12:05	53.5	53.5	53.5	61	40.4	4	9	270	0.00	29.505 
12:10	53.6	53.6	53.6	58	39.2	3	9	270	0.00	29.505 
12:15	53.5	53.5	53.5	58	39.1	4	10	292	0.00	29.510 
12:20	53.8	53.8	53.8	59	39.8	4	10	270	0.00	29.510 
12:25	53.9	53.9	53.9	57	39.0	3	10	315	0.00	29.510 
12:30	53.8	53.8	53.8	60	40.2	3	9	292	0.00	29.520 
12:35	53.8	53.8	53.8	61	40.7	4	10	292	0.00	29.520 
12:40	54.1	54.1	54.1	63	41.8	3	7	315	0.00	29.520 
12:45	54.8	54.8	54.8	64	42.9	3	7	315	0.00	29.516 
12:50	55.4	55.4	55.4	61	42.2	2	5	315	0.00	29.516 
12:55	55.4	55.4	55.4	56	40.0	3	7	315	0.00	29.516 
13:00	55.9	55.9	55.9	56	40.4	3	7	292	0.00	29.504 
13:05	56.3	56.3	56.3	53	39.4	3	7	315	0.00	29.504 
13:10	56.9	56.9	56.9	56	41.4	3	6	292	0.00	29.504 
13:15	57.0	57.0	57.0	55	41.0	3	6	292	0.00	29.501 
13:20	57.0	57.0	57.0	56	41.5	3	6	315	0.00	29.501 
13:25	57.6	57.6	57.6	58	42.9	3	6	315	0.00	29.501 
13:30	57.8	57.8	57.8	57	42.7	3	6	270	0.00	29.500 
13:35	57.6	57.6	57.6	59	43.4	2	6	292	0.00	29.500 
13:40	57.8	57.8	57.8	55	41.7	2	6	292	0.00	29.500 
13:45	57.8	57.8	57.8	54	41.3	3	6	315	0.00	29.500 
13:50	58.0	58.0	58.0	54	41.4	3	6	315	0.00	29.500 
13:55	57.6	57.6	57.6	54	41.1	3	6	315	0.00	29.500 
14:00	56.3	56.3	56.3	55	40.3	3	6	315	0.00	29.506 
14:05	56.3	56.3	56.3	55	40.3	3	7	315	0.00	29.506 
14:10	57.6	57.6	57.6	54	41.1	3	9	270	0.00	29.506 
14:15	58.9	58.9	58.9	53	41.8	4	10	292	0.00	29.503 
14:20	58.7	58.7	58.7	49	39.6	4	9	292	0.00	29.503 
14:25	57.5	57.5	57.5	52	40.0	3	7	292	0.00	29.503 
14:30	56.9	56.9	56.9	52	39.5	2	6	292	0.00	29.505 
14:35	57.8	57.8	57.8	53	40.8	3	6	270	0.00	29.505 
14:40	58.0	58.0	58.0	53	41.0	3	6	315	0.00	29.505 
14:45	57.5	57.5	57.5	51	39.5	2	9	270	0.00	29.509 
14:50	58.9	58.9	58.9	51	40.8	3	10	270	0.00	29.509 
14:55	59.6	59.6	59.6	50	40.9	3	6	315	0.00	29.509 
15:00	59.9	59.9	59.9	48	40.2	4	7	270	0.00	29.509 
15:05	58.9	58.9	58.9	47	38.7	4	9	292	0.00	29.509 
15:10	57.5	57.5	57.5	50	39.0	3	9	315	0.00	29.509 
15:15	56.6	56.6	56.6	53	39.7	3	10	292	0.00	29.523 
15:20	57.2	57.2	57.2	50	38.7	3	9	315	0.00	29.523 
15:25	58.6	58.6	58.6	46	37.9	4	9	270	0.00	29.523 
15:30	58.1	58.1	58.1	48	38.5	3	7	292	0.00	29.524 
15:35	58.3	58.3	58.3	49	39.2	4	11	292	0.00	29.524 
15:40	58.7	58.7	58.7	49	39.6	3	6	315	0.00	29.524 
15:45	58.6	58.6	58.6	46	37.9	3	7	315	0.00	29.529 
15:50	58.4	58.4	58.4	48	38.8	2	5	292	0.00	29.529 
15:55	58.0	58.0	58.0	48	38.4	3	7	292	0.00	29.529 
16:00	57.3	57.3	57.3	47	37.2	3	10	315	0.00	29.535 
16:05	58.1	58.1	58.1	47	38.0	4	11	292	0.00	29.535 
16:10	58.9	58.9	58.9	46	38.2	3	7	315	0.00	29.535 
16:15	58.6	58.6	58.6	47	38.4	3	9	315	0.00	29.535 
16:20	58.7	58.7	58.7	49	39.6	3	5	270	0.00	29.535 
16:25	57.3	57.3	57.3	47	37.2	3	9	338	0.00	29.535 
16:30	57.5	57.5	57.5	53	40.5	3	6	315	0.00	29.539 
16:35	57.8	57.8	57.8	48	38.2	4	7	270	0.00	29.539 
16:40	58.1	58.1	58.1	48	38.5	3	8	292	0.00	29.539 
16:45	57.8	57.8	57.8	48	38.2	4	13	315	0.00	29.550 
16:50	57.3	57.3	57.3	49	38.3	2	9	292	0.00	29.550 
16:55	56.7	56.7	56.7	46	36.2	3	9	0	0.00	29.550 
17:00	55.6	55.6	55.6	49	36.7	3	8	292	0.00	29.555 
17:05	55.3	55.3	55.3	50	37.0	3	11	292	0.00	29.555 
17:10	55.1	55.1	55.1	52	37.8	3	10	270	0.00	29.555 
17:15	55.3	55.3	55.3	49	36.5	3	7	315	0.00	29.560 
17:20	55.3	55.3	55.3	49	36.5	3	7	315	0.00	29.560 
17:25	55.0	55.0	55.0	50	36.7	3	8	292	0.00	29.560 
17:30	54.8	54.8	54.8	49	36.0	3	7	315	0.00	29.564 
17:35	55.7	55.7	55.7	49	36.8	3	7	292	0.00	29.564 
17:40	55.4	55.4	55.4	50	37.1	3	6	292	0.00	29.564 
17:45	55.7	55.7	55.7	50	37.3	2	5	292	0.00	29.562 
17:50	55.6	55.6	55.6	47	35.7	3	6	292	0.00	29.562 
17:55	55.6	55.6	55.6	48	36.2	2	9	292	0.00	29.562 
18:00	55.3	55.3	55.3	47	35.4	3	10	292	0.00	29.568 
18:05	55.4	55.4	55.4	48	36.0	3	9	270	0.00	29.568 
18:10	55.6	55.6	55.6	49	36.7	2	6	315	0.00	29.568 
18:15	55.6	55.6	55.6	47	35.7	2	6	292	0.00	29.570 
18:20	55.6	55.6	55.6	46	35.2	3	10	315	0.00	29.570 
18:25	55.6	55.6	55.6	47	35.7	3	11	270	0.00	29.570 
18:30	55.4	55.4	55.4	47	35.5	2	9	315	0.00	29.572 
18:35	55.3	55.3	55.3	48	35.9	2	7	292	0.00	29.572 
18:40	55.3	55.3	55.3	49	36.5	2	5	292	0.00	29.572 
18:45	55.7	55.7	55.7	50	37.3	2	9	338	0.00	29.571 
18:50	56.3	56.3	56.3	48	36.9	3	6	270	0.00	29.571 
18:55	56.6	56.6	56.6	47	36.6	2	6	315	0.00	29.571 
19:00	56.5	56.5	56.5	47	36.5	3	10	270	0.00	29.575 
19:05	56.0	56.0	56.0	47	36.1	3	6	315	0.00	29.575 
19:10	55.6	55.6	55.6	48	36.2	3	9	292	0.00	29.575 
19:15	55.4	55.4	55.4	49	36.6	3	7	292	0.00	29.581 
19:20	55.1	55.1	55.1	49	36.3	2	5	270	0.00	29.581 
19:25	54.8	54.8	54.8	49	36.0	3	7	315	0.00	29.581 
19:30	54.8	54.8	54.8	51	37.0	2	7	315	0.00	29.586 
19:35	54.7	54.7	54.7	51	36.9	3	7	315	0.00	29.586 
19:40	54.4	54.4	54.4	52	37.1	3	9	315	0.00	29.586 
19:45	54.1	54.1	54.1	50	35.9	3	10	315	0.00	29.598 
19:50	53.9	53.9	53.9	51	36.2	3	6	315	0.00	29.598 
19:55	53.8	53.8	53.8	53	37.1	2	9	270	0.00	29.598 
20:00	53.5	53.5	53.5	54	37.3	2	7	292	0.00	29.598 
20:05	53.2	53.2	53.2	54	37.0	2	6	315	0.00	29.598 
20:10	53.1	53.1	53.1	54	36.9	2	6	292	0.00	29.598 
20:15	52.8	52.8	52.8	55	37.1	3	6	292	0.00	29.604 
20:20	52.5	52.5	52.5	56	37.3	3	9	270	0.00	29.604 
20:25	52.2	52.2	52.2	57	37.4	3	9	315	0.00	29.604 
20:30	52.0	52.0	52.0	58	37.7	2	5	315	0.00	29.606 
20:35	51.7	51.7	51.7	59	37.8	2	7	315	0.00	29.606 
20:40	51.6	51.6	51.6	59	37.7	2	5	270	0.00	29.606 
20:45	51.4	51.4	51.4	58	37.1	3	10	270	0.00	29.610 
20:50	51.1	51.1	51.1	59	37.3	3	7	270	0.00	29.610 
20:55	51.0	51.0	51.0	58	36.7	4	11	315	0.00	29.610 
21:00	50.8	50.8	50.8	59	37.0	3	7	292	0.00	29.613 
21:05	50.5	50.5	50.5	61	37.6	2	6	315	0.00	29.613 
21:10	50.4	50.4	50.4	61	37.5	1	3	292	0.00	29.613 
21:15	50.4	50.4	50.4	62	37.9	1	4	292	0.00	29.607 
21:20	50.2	50.2	50.2	62	37.7	1	3	292	0.00	29.607 
21:25	50.2	50.2	50.2	63	38.1	1	3	270	0.00	29.607 
21:30	50.1	50.1	50.1	63	38.0	2	4	270	0.00	29.612 
21:35	49.9	49.9	49.9	63	37.8	3	7	270	0.00	29.612 
21:40	49.8	49.8	49.8	63	37.7	2	7	315	0.00	29.612 
21:45	49.8	49.8	49.8	64	38.1	2	3	270	0.00	29.611 
21:50	49.6	49.6	49.6	65	38.3	2	5	270	0.00	29.611 
21:55	49.6	49.6	49.6	65	38.3	2	5	315	0.00	29.611 
22:00	49.4	49.4	49.4	66	38.5	2	13	270	0.00	29.614 
22:05	49.2	49.2	49.2	67	38.7	2	4	315	0.00	29.614 
22:10	49.1	49.1	49.1	69	39.4	1	3	270	0.00	29.614 
22:15	48.9	48.9	48.9	69	39.2	2	5	315	0.00	29.615 
22:20	48.9	48.9	48.9	69	39.2	2	5	270	0.00	29.615 
22:25	48.6	48.6	48.6	70	39.3	3	6	292	0.00	29.615 
22:30	48.3	48.3	48.3	72	39.7	2	9	270	0.00	29.620 
22:35	48.2	48.2	48.2	72	39.6	2	7	292	0.00	29.620 
22:40	48.0	48.0	48.0	73	39.8	2	7	270	0.00	29.620 
22:45	47.9	47.9	47.9	74	40.0	2	5	292	0.00	29.623 
22:50	47.6	47.6	47.6	75	40.1	2	4	292	0.00	29.623 
22:55	47.4	47.4	47.4	77	40.6	3	7	315	0.00	29.623 
23:00	47.1	47.1	47.1	77	40.3	2	6	270	0.00	29.629 
23:05	47.0	47.0	47.0	78	40.5	2	4	292	0.00	29.629 
23:10	46.8	46.8	46.8	80	41.0	2	5	315	0.00	29.629 
23:15	46.7	46.7	46.7	80	40.9	1	5	315	0.00	29.634 
23:20	46.4	46.4	46.4	80	40.6	2	6	270	0.00	29.634 
23:25	46.4	46.4	46.4	81	40.9	2	5	315	0.00	29.634 
23:30	46.2	46.2	46.2	81	40.7	2	7	315	0.01	29.633 
23:35	46.1	46.1	46.1	83	41.2	2	6	338	0.00	29.633 
23:40	46.0	46.0	46.0	82	40.8	3	7	315	0.00	29.633 
23:45	45.8	45.8	45.8	81	40.3	2	5	270	0.00	29.634 
23:50	45.8	45.8	45.8	82	40.6	2	6	270	0.00	29.634 
23:55	45.8	45.8	45.8	83	40.9	1	3	315	0.00	29.634 

CoCoRaHS
IN-AL-39
A2 Web Hosting
Creative Commons License
GoDaddy
Look for:

loaded 2017-12-12 14:43:39 • last modified 2010-11-18 10:43:29
Privacy PolicyDisclaimer
• wx.awcolley.com is powered by PmWiki v.2002016 •
• all content (unless otherwise noted) © 2017 A W Colley